Ava Foss — WDF5779 — position and weather

sailwx.info

Track history (hours):
 
Tides and Currents Weather Stations Pressure Air Temp Water Temp Dewpoint Dewpoint Depression Visibility Wind Speed Wind Dir Waves Ship Positions

Ava Foss

Owner: Foss Maritime Company, Seattle, WA. More information available from US FCC via Universal Licensing System and Coast Guard Vessel Documentation Center.

Last reported at 2016-May-26 14:22 UTC. Time now 2016-May-26 14:40 UTC.
Position N 33°51' W 118°24'.

Length 10 m; draft 2.5 m.

Type: Passenger vessel. MMSI: 367467120.

Date/timePositionNaut miles runAvg speedWind from/ knotsBaromVisibWave heightAir tempDewpointWater temp
2016-May-26 14:22N 33°51' W 118°24'5 1.0
2016-May-26 09:27N 33°54' W 118°27'3 0.3
2016-May-25 20:27N 33°52' W 118°25'2 2.6
2016-May-25 19:34N 33°53' W 118°27'4 0.7
2016-May-25 13:33N 33°51' W 118°24'0 0.0
2016-May-25 12:33N 33°51' W 118°24'0 0.0
2016-May-25 11:33N 33°51' W 118°24'0 0.0
2016-May-25 10:33N 33°51' W 118°24'0 0.0
2016-May-25 09:33N 33°51' W 118°24'0 0.0
2016-May-25 08:33N 33°51' W 118°24'0 0.0
2016-May-25 07:33N 33°51' W 118°24'0 0.0
2016-May-25 06:33N 33°51' W 118°24'0 0.0
2016-May-25 05:30N 33°51' W 118°24'0 0.0
2016-May-25 04:30N 33°51' W 118°24'5 4.6
2016-May-25 03:25N 33°54' W 118°27'5 5.4
2016-May-25 02:31N 33°51' W 118°24'0 0.0
2016-May-25 01:25N 33°51' W 118°24'0 0.0
2016-May-25 00:10N 33°51' W 118°24'0 0.0
2016-May-24 23:28N 33°51' W 118°24'6 5.2
2016-May-24 22:18N 33°54' W 118°29'0 0.1
2016-May-24 21:22N 33°54' W 118°29'6 7.4
2016-May-24 20:33N 33°51' W 118°24'6 6.1
2016-May-24 19:33N 33°54' W 118°29'0 0.1
2016-May-24 18:33N 33°54' W 118°29'3 3.2
2016-May-24 17:33N 33°52' W 118°27'3 2.9
2016-May-24 16:32N 33°51' W 118°24'0 0.1
2016-May-24 14:29N 33°51' W 118°24'2 1.8
2016-May-24 13:34N 33°51' W 118°26'2 1.8
2016-May-24 12:33N 33°51' W 118°24'0 0.0
2016-May-24 04:32N 33°51' W 118°24'0 0.2
2016-May-24 03:33N 33°51' W 118°24'  
2016-May-20 18:05N 33°54' W 118°27'5 9.2
2016-May-20 17:33N 33°51' W 118°24'0 0.0
2016-May-20 16:33N 33°51' W 118°24'0 0.0
2016-May-20 15:33N 33°51' W 118°24'0 0.2
2016-May-20 14:34N 33°50' W 118°24'4 3.5
2016-May-20 13:29N 33°51' W 118°28'4 3.9
2016-May-20 12:28N 33°51' W 118°24'0 0.0
2016-May-20 11:31N 33°51' W 118°24'0 0.0
2016-May-20 10:28N 33°51' W 118°24'0 0.0
2016-May-20 09:31N 33°51' W 118°24'0 0.0
2016-May-20 08:31N 33°51' W 118°24'0 0.0
2016-May-20 07:31N 33°51' W 118°24'0 0.0
2016-May-20 06:31N 33°51' W 118°24'5 5.1
2016-May-20 05:33N 33°54' W 118°27'3 3.5
2016-May-20 04:33N 33°51' W 118°25'2 1.5
2016-May-20 03:33N 33°51' W 118°24'0 0.0
2016-May-20 02:24N 33°51' W 118°24'0 0.0
2016-May-20 01:23N 33°51' W 118°24'1 1.5
2016-May-20 00:33N 33°51' W 118°25'1 0.3
2016-May-19 20:16N 33°50' W 118°24'2 2.7
2016-May-19 19:33N 33°52' W 118°25'2 1.9
2016-May-19 18:33N 33°51' W 118°24'5 4.6
2016-May-19 17:29N 33°54' W 118°28'5 5.4
2016-May-19 16:34N 33°51' W 118°24'5 4.6
2016-May-19 15:34N 33°52' W 118°29'5 4.4
2016-May-19 14:31N 33°51' W 118°24'5 4.6
2016-May-19 13:28N 33°54' W 118°27'0 0.5
2016-May-19 12:33N 33°54' W 118°27'5 4.5
2016-May-19 11:30N 33°51' W 118°24'0 0.0
2016-May-19 10:33N 33°51' W 118°24'0 0.0
2016-May-19 09:33N 33°51' W 118°24'0 0.0
2016-May-19 08:33N 33°51' W 118°24'0 0.0
2016-May-19 04:22N 33°51' W 118°24'0 0.0
2016-May-18 23:25N 33°51' W 118°24'2 0.6
2016-May-18 19:32N 33°52' W 118°26'2 2.3
2016-May-18 18:33N 33°54' W 118°27'5 1.2
2016-May-18 14:31N 33°51' W 118°24'0 0.0
2016-May-17 18:09N 33°51' W 118°24'3 5.1
2016-May-17 17:33N 33°53' W 118°26'3 2.9
2016-May-17 16:30N 33°51' W 118°24'2 1.0
2016-May-17 14:27N 33°51' W 118°26'2 2.1
2016-May-17 13:27N 33°51' W 118°24'0 0.0
2016-May-16 17:14N 33°50' W 118°24'1 2.0
2016-May-16 16:32N 33°51' W 118°25'1 1.2
2016-May-16 15:32N 33°51' W 118°24'  
Track history (hours):
 
Tides and Currents Weather Stations Pressure Air Temp Water Temp Dewpoint Dewpoint Depression Visibility Wind Speed Wind Dir Waves Ship Positions

Ava Foss

Owner: Foss Maritime Company, Seattle, WA. More information available from US FCC via Universal Licensing System and Coast Guard Vessel Documentation Center.

Last reported at 2016-May-26 14:22 UTC. Time now 2016-May-26 14:40 UTC.
Position N 33°51' W 118°24'.

Length 10 m; draft 2.5 m.

Type: Passenger vessel. MMSI: 367467120.

Date/timePositionNaut miles runAvg speedWind from/ knotsBaromVisibWave heightAir tempDewpointWater temp
2016-May-26 14:22N 33°51' W 118°24'5 1.0
2016-May-26 09:27N 33°54' W 118°27'3 0.3
2016-May-25 20:27N 33°52' W 118°25'2 2.6
2016-May-25 19:34N 33°53' W 118°27'4 0.7
2016-May-25 13:33N 33°51' W 118°24'0 0.0
2016-May-25 12:33N 33°51' W 118°24'0 0.0
2016-May-25 11:33N 33°51' W 118°24'0 0.0
2016-May-25 10:33N 33°51' W 118°24'0 0.0
2016-May-25 09:33N 33°51' W 118°24'0 0.0
2016-May-25 08:33N 33°51' W 118°24'0 0.0
2016-May-25 07:33N 33°51' W 118°24'0 0.0
2016-May-25 06:33N 33°51' W 118°24'0 0.0
2016-May-25 05:30N 33°51' W 118°24'0 0.0
2016-May-25 04:30N 33°51' W 118°24'5 4.6
2016-May-25 03:25N 33°54' W 118°27'5 5.4
2016-May-25 02:31N 33°51' W 118°24'0 0.0
2016-May-25 01:25N 33°51' W 118°24'0 0.0
2016-May-25 00:10N 33°51' W 118°24'0 0.0
2016-May-24 23:28N 33°51' W 118°24'6 5.2
2016-May-24 22:18N 33°54' W 118°29'0 0.1
2016-May-24 21:22N 33°54' W 118°29'6 7.4
2016-May-24 20:33N 33°51' W 118°24'6 6.1
2016-May-24 19:33N 33°54' W 118°29'0 0.1
2016-May-24 18:33N 33°54' W 118°29'3 3.2
2016-May-24 17:33N 33°52' W 118°27'3 2.9
2016-May-24 16:32N 33°51' W 118°24'0 0.1
2016-May-24 14:29N 33°51' W 118°24'2 1.8
2016-May-24 13:34N 33°51' W 118°26'2 1.8
2016-May-24 12:33N 33°51' W 118°24'0 0.0
2016-May-24 04:32N 33°51' W 118°24'0 0.2
2016-May-24 03:33N 33°51' W 118°24'  
2016-May-20 18:05N 33°54' W 118°27'5 9.2
2016-May-20 17:33N 33°51' W 118°24'0 0.0
2016-May-20 16:33N 33°51' W 118°24'0 0.0
2016-May-20 15:33N 33°51' W 118°24'0 0.2
2016-May-20 14:34N 33°50' W 118°24'4 3.5
2016-May-20 13:29N 33°51' W 118°28'4 3.9
2016-May-20 12:28N 33°51' W 118°24'0 0.0
2016-May-20 11:31N 33°51' W 118°24'0 0.0
2016-May-20 10:28N 33°51' W 118°24'0 0.0
2016-May-20 09:31N 33°51' W 118°24'0 0.0
2016-May-20 08:31N 33°51' W 118°24'0 0.0
2016-May-20 07:31N 33°51' W 118°24'0 0.0
2016-May-20 06:31N 33°51' W 118°24'5 5.1
2016-May-20 05:33N 33°54' W 118°27'3 3.5
2016-May-20 04:33N 33°51' W 118°25'2 1.5
2016-May-20 03:33N 33°51' W 118°24'0 0.0
2016-May-20 02:24N 33°51' W 118°24'0 0.0
2016-May-20 01:23N 33°51' W 118°24'1 1.5
2016-May-20 00:33N 33°51' W 118°25'1 0.3
2016-May-19 20:16N 33°50' W 118°24'2 2.7
2016-May-19 19:33N 33°52' W 118°25'2 1.9
2016-May-19 18:33N 33°51' W 118°24'5 4.6
2016-May-19 17:29N 33°54' W 118°28'5 5.4
2016-May-19 16:34N 33°51' W 118°24'5 4.6
2016-May-19 15:34N 33°52' W 118°29'5 4.4
2016-May-19 14:31N 33°51' W 118°24'5 4.6
2016-May-19 13:28N 33°54' W 118°27'0 0.5
2016-May-19 12:33N 33°54' W 118°27'5 4.5
2016-May-19 11:30N 33°51' W 118°24'0 0.0
2016-May-19 10:33N 33°51' W 118°24'0 0.0
2016-May-19 09:33N 33°51' W 118°24'0 0.0
2016-May-19 08:33N 33°51' W 118°24'0 0.0
2016-May-19 04:22N 33°51' W 118°24'0 0.0
2016-May-18 23:25N 33°51' W 118°24'2 0.6
2016-May-18 19:32N 33°52' W 118°26'2 2.3
2016-May-18 18:33N 33°54' W 118°27'5 1.2
2016-May-18 14:31N 33°51' W 118°24'0 0.0
2016-May-17 18:09N 33°51' W 118°24'3 5.1
2016-May-17 17:33N 33°53' W 118°26'3 2.9
2016-May-17 16:30N 33°51' W 118°24'2 1.0
2016-May-17 14:27N 33°51' W 118°26'2 2.1
2016-May-17 13:27N 33°51' W 118°24'0 0.0
2016-May-16 17:14N 33°50' W 118°24'1 2.0
2016-May-16 16:32N 33°51' W 118°25'1 1.2
2016-May-16 15:32N 33°51' W 118°24'  

Dump ship's entire track history